Yidu, China
Current Conditions -  °F | °C
As of 5:00 PM on Monday 22 Dec 2014 (Local Time) from ZSJN Reporting Station
Clear Clear  
Wind Chill: 35°   Ceiling: Unl
Heat Index: 41°   Visibility: 6mi
Dew Point:   Wind: 9mph
Humidity: 21%   Direction: 280°W
Pressure: 30.24"   Gusts: NA
Location:  36.68°N, 118.47°E
Report Text: ZSJN 220900Z 28004MPS CAVOK 05/M16 Q1024 NOSIG
Loading
Personal Weather Stations






























Interactive Weather Map New forecast layout! Learn more

10-Day Weather Forecast

Advertisements
Track Severe Weather on mobile